Terminal Aerodrome Forecast
Issued by NWS Wilmington, OH

Home | Current Version | Previous Version | Text Only | Print | Product List | Glossary On
Versions: 1 2 3 4 5 6 7 8 9 10 11 12 13 14 15 16 17 18 19
000
FTUS41 KILN 301750
TAFILN
TAF
KILN 301750Z 3018/3118 17014G24KT P6SM SCT100 BKN200
     FM302300 20011G16KT P6SM VCTS BKN050CB
     FM310300 18009KT 3SM -SHRA BR VCTS OVC025CB
     FM310600 19007KT 3SM -SHRA BR OVC025
     FM311000 19007KT 3SM -SHRA BR OVC015
     FM311200 21008KT P6SM OVC015
     FM311600 24012KT P6SM OVC015=

USA.gov is the U.S. government's official web portal to all federal, state and local government web resources and services.